createdAt,value
2018-01-26T00:00:11.839Z,22.17
2018-01-26T00:02:38.156Z,24.20
2018-01-26T00:05:04.461Z,24.45
2018-01-26T00:07:30.831Z,28.50
2018-01-26T00:09:57.066Z,28.38
2018-01-26T00:12:23.431Z,22.20
2018-01-26T00:14:49.742Z,23.65
2018-01-26T00:17:16.477Z,27.83
2018-01-26T00:19:42.714Z,23.55
2018-01-26T00:22:09.021Z,19.60
2018-01-26T00:24:35.329Z,20.60
2018-01-26T00:27:01.653Z,19.42
2018-01-26T00:29:27.896Z,18.58
2018-01-26T00:31:54.221Z,20.20
2018-01-26T00:34:20.539Z,20.52
2018-01-26T00:36:46.833Z,19.50
2018-01-26T00:39:13.103Z,18.25
2018-01-26T00:41:39.379Z,19.80
2018-01-26T00:44:06.021Z,18.73
2018-01-26T00:46:32.283Z,17.95
2018-01-26T00:48:58.525Z,21.30
2018-01-26T00:51:24.818Z,19.02
2018-01-26T00:53:51.184Z,17.70
2018-01-26T00:56:18.073Z,18.90
2018-01-26T00:58:44.655Z,20.00
2018-01-26T01:01:10.941Z,18.23
2018-01-26T01:03:37.633Z,18.65
2018-01-26T01:06:03.896Z,18.67
2018-01-26T01:08:30.195Z,19.85
2018-01-26T01:10:56.436Z,21.65
2018-01-26T01:13:23.073Z,20.23
2018-01-26T01:15:49.322Z,20.40
2018-01-26T01:18:15.641Z,21.42
2018-01-26T01:20:41.945Z,22.48
2018-01-26T01:23:08.207Z,20.90
2018-01-26T01:25:34.484Z,24.40
2018-01-26T01:28:00.710Z,18.20
2018-01-26T01:30:27.029Z,19.87
2018-01-26T01:32:53.317Z,20.67
2018-01-26T01:35:19.541Z,19.65
2018-01-26T01:37:45.810Z,20.27
2018-01-26T01:40:12.060Z,22.10
2018-01-26T01:42:38.367Z,24.60
2018-01-26T01:45:04.646Z,24.12
2018-01-26T01:47:30.908Z,23.85
2018-01-26T01:49:57.613Z,21.50
2018-01-26T01:52:23.846Z,20.77
2018-01-26T01:54:50.110Z,22.62
2018-01-26T01:57:16.374Z,23.90
2018-01-26T01:59:42.634Z,23.00
2018-01-26T02:02:08.902Z,18.30
2018-01-26T02:04:35.585Z,18.40
2018-01-26T02:07:01.910Z,25.58
2018-01-26T02:09:28.221Z,21.65
2018-01-26T02:11:54.447Z,18.58
2018-01-26T02:14:20.687Z,24.25
2018-01-26T02:16:46.982Z,18.50
2018-01-26T02:19:13.248Z,19.45
2018-01-26T02:21:39.552Z,18.55
2018-01-26T02:24:05.793Z,18.12
2018-01-26T02:26:32.048Z,18.73
2018-01-26T02:28:58.287Z,20.05
2018-01-26T02:31:24.618Z,19.48
2018-01-26T02:33:50.890Z,22.75
2018-01-26T02:36:17.566Z,16.95
2018-01-26T02:38:43.886Z,21.73
2018-01-26T02:41:10.121Z,19.80
2018-01-26T02:43:36.368Z,17.17
2018-01-26T02:46:02.597Z,18.08
2018-01-26T02:48:28.869Z,20.37
2018-01-26T02:50:55.562Z,21.45
2018-01-26T02:53:21.805Z,17.77
2018-01-26T02:55:48.053Z,18.80
2018-01-26T02:58:14.726Z,18.70
2018-01-26T03:00:41.019Z,17.27
2018-01-26T03:03:07.743Z,21.33
2018-01-26T03:05:34.466Z,18.60
2018-01-26T03:08:00.729Z,18.77
2018-01-26T03:10:27.403Z,19.17
2018-01-26T03:12:53.731Z,19.87
2018-01-26T03:15:19.988Z,18.67
2018-01-26T03:17:46.329Z,17.17
2018-01-26T03:20:12.599Z,16.42
2018-01-26T03:22:39.269Z,17.73
2018-01-26T03:25:05.543Z,17.55
2018-01-26T03:27:31.858Z,19.87
2018-01-26T03:29:58.970Z,17.12
2018-01-26T03:32:25.297Z,18.77
2018-01-26T03:34:51.557Z,17.23
2018-01-26T03:37:17.800Z,17.83
2018-01-26T03:39:44.106Z,18.77
2018-01-26T03:42:10.367Z,20.48
2018-01-26T03:44:37.065Z,17.75
2018-01-26T03:47:03.309Z,18.02
2018-01-26T03:49:29.548Z,16.52
2018-01-26T03:51:55.949Z,18.02
2018-01-26T03:54:22.219Z,16.50
2018-01-26T03:56:48.538Z,17.23
2018-01-26T03:59:14.934Z,17.10
2018-01-26T04:01:41.220Z,18.02
2018-01-26T04:04:07.853Z,18.00
2018-01-26T04:06:34.214Z,19.90
2018-01-26T04:09:00.456Z,18.95
2018-01-26T04:11:26.687Z,17.37
2018-01-26T04:13:53.028Z,17.75
2018-01-26T04:16:19.314Z,16.50
2018-01-26T04:18:46.158Z,15.88
2018-01-26T04:21:12.763Z,16.20
2018-01-26T04:23:39.007Z,17.02
2018-01-26T04:26:05.315Z,17.02
2018-01-26T04:28:31.976Z,16.48
2018-01-26T04:30:58.288Z,17.35
2018-01-26T04:33:24.542Z,17.85
2018-01-26T04:35:51.162Z,17.62
2018-01-26T04:38:17.420Z,17.37
2018-01-26T04:40:43.711Z,18.35
2018-01-26T04:43:10.027Z,21.35
2018-01-26T04:45:36.283Z,19.92
2018-01-26T04:48:02.629Z,17.42
2018-01-26T04:50:28.951Z,18.48
2018-01-26T04:52:55.301Z,20.05
2018-01-26T04:55:21.914Z,19.55
2018-01-26T04:57:48.600Z,18.55
2018-01-26T05:00:15.033Z,18.02
2018-01-26T05:02:41.961Z,17.92
2018-01-26T05:05:08.250Z,19.62
2018-01-26T05:07:34.473Z,18.83
2018-01-26T05:10:00.723Z,17.87
2018-01-26T05:12:26.995Z,18.62
2018-01-26T05:14:53.218Z,18.50
2018-01-26T05:17:19.841Z,19.27
2018-01-26T05:19:46.902Z,17.25
2018-01-26T05:22:13.180Z,17.90
2018-01-26T05:24:39.517Z,16.58
2018-01-26T05:27:06.218Z,17.35
2018-01-26T05:29:32.485Z,17.40
2018-01-26T05:31:58.788Z,16.83
2018-01-26T05:34:25.026Z,16.98
2018-01-26T05:36:51.292Z,20.73
2018-01-26T05:39:17.945Z,16.90
2018-01-26T05:41:44.246Z,16.37
2018-01-26T05:44:10.522Z,17.70
2018-01-26T05:46:36.816Z,16.95
2018-01-26T05:49:03.429Z,16.98
2018-01-26T05:51:29.677Z,19.17
2018-01-26T05:53:56.432Z,18.00
2018-01-26T05:56:22.778Z,16.25
2018-01-26T05:58:49.079Z,18.58
2018-01-26T06:01:15.363Z,20.25
2018-01-26T06:03:41.677Z,18.10
2018-01-26T06:06:07.962Z,17.90
2018-01-26T06:08:34.586Z,17.87
2018-01-26T06:11:00.911Z,16.55
2018-01-26T06:13:27.182Z,17.73
2018-01-26T06:15:53.463Z,20.23
2018-01-26T06:18:19.756Z,18.73
2018-01-26T06:20:45.992Z,19.05
2018-01-26T06:23:12.336Z,19.67
2018-01-26T06:25:38.654Z,18.15
2018-01-26T06:28:05.043Z,19.30
2018-01-26T06:30:31.324Z,17.90
2018-01-26T06:32:57.560Z,19.60
2018-01-26T06:35:23.804Z,20.85
2018-01-26T06:37:50.037Z,19.02
2018-01-26T06:40:16.324Z,23.15
2018-01-26T06:42:42.605Z,19.37
2018-01-26T06:45:09.009Z,19.25
2018-01-26T06:47:35.263Z,19.73
2018-01-26T06:50:01.935Z,20.30
2018-01-26T06:52:28.172Z,19.45
2018-01-26T06:54:54.406Z,22.75
2018-01-26T06:57:20.736Z,20.20
2018-01-26T06:59:46.980Z,19.40
2018-01-26T07:02:13.296Z,23.20
2018-01-26T07:04:39.556Z,21.52
2018-01-26T07:07:05.855Z,19.90
2018-01-26T07:09:32.134Z,19.58
2018-01-26T07:11:58.434Z,20.15
2018-01-26T07:14:24.773Z,23.92
2018-01-26T07:16:51.003Z,20.10
2018-01-26T07:19:17.281Z,20.02
2018-01-26T07:21:43.564Z,20.17
2018-01-26T07:24:10.205Z,19.62
2018-01-26T07:26:36.449Z,21.55
2018-01-26T07:29:03.309Z,18.50
2018-01-26T07:31:30.085Z,20.90
2018-01-26T07:33:56.302Z,18.35
2018-01-26T07:36:22.594Z,19.05
2018-01-26T07:38:49.232Z,19.73
2018-01-26T07:41:15.876Z,21.20
2018-01-26T07:43:42.535Z,18.15
2018-01-26T07:46:08.814Z,21.45
2018-01-26T07:48:35.117Z,20.65
2018-01-26T07:51:01.494Z,22.23
2018-01-26T07:53:27.786Z,22.80
2018-01-26T07:55:54.034Z,25.98
2018-01-26T07:58:20.289Z,24.83
2018-01-26T08:00:46.952Z,25.50
2018-01-26T08:03:13.306Z,22.40
2018-01-26T08:05:39.619Z,24.90
2018-01-26T08:08:05.932Z,21.08
2018-01-26T08:10:32.216Z,21.15
2018-01-26T08:12:58.531Z,22.55
2018-01-26T08:15:24.794Z,21.35
2018-01-26T08:17:51.468Z,25.02
2018-01-26T08:20:17.737Z,23.77
2018-01-26T08:22:44.035Z,22.58
2018-01-26T08:25:10.414Z,25.73
2018-01-26T08:27:36.702Z,32.25
2018-01-26T08:30:03.000Z,22.87
2018-01-26T08:32:29.620Z,21.65
2018-01-26T08:34:55.894Z,23.55
2018-01-26T08:37:22.154Z,22.13
2018-01-26T08:39:49.232Z,22.62
2018-01-26T08:42:15.895Z,22.73
2018-01-26T08:44:42.136Z,23.48
2018-01-26T08:47:08.524Z,21.75
2018-01-26T08:49:35.171Z,21.42
2018-01-26T08:52:01.431Z,25.17
2018-01-26T08:54:27.689Z,21.10
2018-01-26T08:56:54.009Z,23.02
2018-01-26T08:59:20.270Z,19.67
2018-01-26T09:01:46.644Z,20.75
2018-01-26T09:04:19.739Z,22.08
2018-01-26T09:06:45.972Z,22.33
2018-01-26T09:09:12.216Z,24.73
2018-01-26T09:11:38.510Z,24.48
2018-01-26T09:14:04.865Z,22.02
2018-01-26T09:16:31.154Z,23.35
2018-01-26T09:18:57.425Z,20.27
2018-01-26T09:21:23.765Z,23.35
2018-01-26T09:23:50.067Z,18.95
2018-01-26T09:26:16.308Z,19.67
2018-01-26T09:28:42.585Z,21.98
2018-01-26T09:31:08.953Z,19.08
2018-01-26T09:33:35.191Z,18.95
2018-01-26T09:36:01.585Z,19.40
2018-01-26T09:38:28.232Z,20.05
2018-01-26T09:40:54.564Z,19.15
2018-01-26T09:43:20.818Z,17.62
2018-01-26T09:45:47.068Z,20.05
2018-01-26T09:48:13.432Z,18.85
2018-01-26T09:50:39.680Z,20.08
2018-01-26T09:53:06.315Z,19.37
2018-01-26T09:55:32.906Z,19.90
2018-01-26T09:57:59.138Z,20.17
2018-01-26T10:00:25.447Z,18.92
2018-01-26T10:02:51.692Z,18.27
2018-01-26T10:05:17.948Z,18.25
2018-01-26T10:07:44.985Z,17.55
2018-01-26T10:10:11.237Z,15.20
2018-01-26T10:12:37.501Z,15.52
2018-01-26T10:15:03.803Z,14.27
2018-01-26T10:17:30.471Z,15.27
2018-01-26T10:19:56.730Z,15.13
2018-01-26T10:22:22.983Z,14.00
2018-01-26T10:24:49.218Z,14.38
2018-01-26T10:27:16.482Z,14.52
2018-01-26T10:29:42.784Z,12.60
2018-01-26T10:32:09.014Z,11.60
2018-01-26T10:34:42.217Z,13.70
2018-01-26T10:37:08.862Z,12.53
2018-01-26T10:39:35.552Z,14.37
2018-01-26T10:42:01.842Z,13.97
2018-01-26T10:44:28.533Z,14.30
2018-01-26T10:46:55.549Z,13.77
2018-01-26T10:49:21.832Z,12.27
2018-01-26T10:51:48.174Z,12.00
2018-01-26T10:54:14.514Z,13.60
2018-01-26T10:56:41.114Z,12.63
2018-01-26T10:59:08.291Z,14.13
2018-01-26T11:01:34.566Z,15.27
2018-01-26T11:04:00.842Z,13.23
2018-01-26T11:06:27.501Z,12.20
2018-01-26T11:08:53.792Z,14.77
2018-01-26T11:11:20.065Z,14.37
2018-01-26T11:13:46.334Z,15.00
2018-01-26T11:16:12.641Z,13.83
2018-01-26T11:18:38.906Z,14.60
2018-01-26T11:21:05.196Z,14.03
2018-01-26T11:23:31.430Z,14.00
2018-01-26T11:25:57.704Z,14.00
2018-01-26T11:28:23.965Z,15.20
2018-01-26T11:30:50.630Z,15.57
2018-01-26T11:33:16.900Z,15.67
2018-01-26T11:35:43.123Z,12.03
2018-01-26T11:38:09.387Z,10.33
2018-01-26T11:40:35.599Z,7.17
2018-01-26T11:43:02.227Z,5.20
2018-01-26T11:45:28.482Z,5.40
2018-01-26T11:47:54.740Z,3.80
2018-01-26T11:50:21.028Z,4.40
2018-01-26T11:52:47.695Z,3.47
2018-01-26T11:55:13.943Z,4.33
2018-01-26T11:57:40.228Z,3.77
2018-01-26T12:00:06.515Z,3.30
2018-01-26T12:02:32.792Z,3.20
2018-01-26T12:04:59.411Z,3.63
2018-01-26T12:07:26.038Z,4.17
2018-01-26T12:09:52.302Z,3.73
2018-01-26T12:12:18.721Z,4.03
2018-01-26T12:14:44.901Z,3.17
2018-01-26T12:17:11.174Z,3.53
2018-01-26T12:19:37.801Z,3.47
2018-01-26T12:22:04.495Z,3.40
2018-01-26T12:24:30.776Z,2.80
2018-01-26T12:26:57.434Z,3.57
2018-01-26T12:29:24.572Z,3.23
2018-01-26T12:31:51.163Z,4.00
2018-01-26T12:34:17.445Z,3.37
2018-01-26T12:36:43.696Z,2.87
2018-01-26T12:39:09.974Z,2.77
2018-01-26T12:41:36.270Z,3.03
2018-01-26T12:44:02.518Z,2.30
2018-01-26T12:46:28.945Z,2.67
2018-01-26T12:48:55.281Z,3.20
2018-01-26T12:51:21.650Z,3.57
2018-01-26T12:53:48.010Z,2.43
2018-01-26T12:56:14.406Z,3.23
2018-01-26T12:58:41.133Z,2.93
2018-01-26T13:01:08.635Z,5.10
2018-01-26T13:03:35.151Z,3.87
2018-01-26T13:06:02.511Z,3.03
2018-01-26T13:08:29.551Z,3.20
2018-01-26T13:10:56.876Z,2.90
2018-01-26T13:13:24.504Z,3.27
2018-01-26T13:15:59.120Z,3.03
2018-01-26T13:18:25.408Z,3.33
2018-01-26T13:20:51.933Z,3.00
2018-01-26T13:23:18.619Z,2.90
2018-01-26T13:25:45.115Z,3.80
2018-01-26T13:28:11.371Z,3.53
2018-01-26T13:30:37.647Z,3.20
2018-01-26T13:33:03.975Z,4.37
2018-01-26T13:35:31.358Z,3.37
2018-01-26T13:37:57.711Z,4.63
2018-01-26T13:40:24.013Z,3.47
2018-01-26T13:42:50.319Z,3.63
2018-01-26T13:45:16.648Z,4.22
2018-01-26T13:47:42.977Z,3.60
2018-01-26T13:50:09.248Z,3.97
2018-01-26T13:52:36.003Z,4.55
2018-01-26T13:55:02.301Z,4.25
2018-01-26T13:57:28.613Z,4.75
2018-01-26T13:59:54.887Z,4.50
2018-01-26T14:02:21.249Z,3.95
2018-01-26T14:04:47.554Z,3.70
2018-01-26T14:07:13.859Z,5.05
2018-01-26T14:09:40.137Z,5.40
2018-01-26T14:12:06.380Z,4.80
2018-01-26T14:14:32.662Z,5.40
2018-01-26T14:16:58.928Z,4.75
2018-01-26T14:19:25.278Z,4.65
2018-01-26T14:21:51.532Z,5.25
2018-01-26T14:24:18.188Z,3.53
2018-01-26T14:26:44.472Z,7.82
2018-01-26T14:29:10.728Z,5.90
2018-01-26T14:31:37.007Z,6.75
2018-01-26T14:34:03.269Z,11.32
2018-01-26T14:36:29.510Z,8.00
2018-01-26T14:38:56.159Z,5.10
2018-01-26T14:41:22.500Z,5.18
2018-01-26T14:43:48.774Z,11.80
2018-01-26T14:46:15.010Z,6.50
2018-01-26T14:48:41.348Z,10.70
2018-01-26T14:51:07.602Z,7.05
2018-01-26T14:53:33.874Z,7.82
2018-01-26T14:56:00.215Z,6.22
2018-01-26T14:58:26.514Z,5.80
2018-01-26T15:00:52.898Z,19.10
2018-01-26T15:03:19.179Z,22.40
2018-01-26T15:05:45.514Z,12.85
2018-01-26T15:08:11.827Z,12.73
2018-01-26T15:10:38.119Z,8.00
2018-01-26T15:13:04.487Z,4.47
2018-01-26T15:15:30.800Z,3.60
2018-01-26T15:17:57.429Z,4.00
2018-01-26T15:20:23.712Z,3.53
2018-01-26T15:22:49.982Z,2.92
2018-01-26T15:25:16.338Z,3.10
2018-01-26T15:27:42.981Z,2.80
2018-01-26T15:30:09.310Z,3.40
2018-01-26T15:32:35.979Z,3.62
2018-01-26T15:35:02.317Z,2.90
2018-01-26T15:37:28.578Z,3.30
2018-01-26T15:39:54.906Z,3.53
2018-01-26T15:42:21.250Z,3.10
2018-01-26T15:44:47.621Z,3.60
2018-01-26T15:47:13.910Z,2.78
2018-01-26T15:49:40.215Z,3.40
2018-01-26T15:52:06.529Z,3.80
2018-01-26T15:54:32.828Z,3.35
2018-01-26T15:56:59.234Z,6.12
2018-01-26T15:59:25.544Z,4.50
2018-01-26T16:01:51.930Z,4.35
2018-01-26T16:04:18.275Z,5.10
2018-01-26T16:06:44.678Z,7.68
2018-01-26T16:09:11.358Z,7.40
2018-01-26T16:11:37.664Z,4.30
2018-01-26T16:14:03.987Z,4.05
2018-01-26T16:16:30.372Z,3.90
2018-01-26T16:18:56.739Z,5.85
2018-01-26T16:21:23.108Z,4.60
2018-01-26T16:23:49.440Z,3.83
2018-01-26T16:26:15.698Z,3.85
2018-01-26T16:28:42.014Z,4.07
2018-01-26T16:31:08.338Z,4.78
2018-01-26T16:33:34.655Z,4.00
2018-01-26T16:36:00.956Z,4.05
2018-01-26T16:38:27.291Z,4.00
2018-01-26T16:40:53.664Z,4.10
2018-01-26T16:43:19.977Z,3.78
2018-01-26T16:45:46.280Z,3.50
2018-01-26T16:48:12.608Z,4.07
2018-01-26T16:50:38.890Z,3.92
2018-01-26T16:53:05.156Z,4.97
2018-01-26T16:55:31.506Z,4.80
2018-01-26T16:57:57.743Z,6.47
2018-01-26T17:00:24.100Z,5.47
2018-01-26T17:02:50.420Z,5.40
2018-01-26T17:05:16.776Z,5.87
2018-01-26T17:07:43.173Z,4.50
2018-01-26T17:10:09.415Z,6.97
2018-01-26T17:12:35.681Z,5.20
2018-01-26T17:15:01.961Z,5.87
2018-01-26T17:17:28.225Z,5.60
2018-01-26T17:19:54.480Z,6.85
2018-01-26T17:22:20.796Z,6.82
2018-01-26T17:24:47.316Z,6.45
2018-01-26T17:27:13.571Z,6.72
2018-01-26T17:29:39.877Z,6.07
2018-01-26T17:32:06.171Z,6.72
2018-01-26T17:34:32.493Z,6.37
2018-01-26T17:36:58.709Z,6.10
2018-01-26T17:39:25.003Z,6.80
2018-01-26T17:41:51.231Z,8.27
2018-01-26T17:44:17.546Z,6.25
2018-01-26T17:46:43.818Z,7.45
2018-01-26T17:49:10.167Z,6.20
2018-01-26T17:51:36.584Z,8.90
2018-01-26T17:54:02.880Z,9.77
2018-01-26T17:56:29.160Z,8.90
2018-01-26T17:58:55.407Z,8.30
2018-01-26T18:01:21.753Z,7.97
2018-01-26T18:03:48.036Z,7.95
2018-01-26T18:06:14.348Z,8.25
2018-01-26T18:08:40.995Z,7.18
2018-01-26T18:11:07.350Z,7.50
2018-01-26T18:13:33.624Z,7.57
2018-01-26T18:15:59.936Z,7.15
2018-01-26T18:18:26.252Z,9.30
2018-01-26T18:20:52.508Z,7.80
2018-01-26T18:23:18.873Z,8.18
2018-01-26T18:25:45.130Z,7.93
2018-01-26T18:28:11.604Z,10.55
2018-01-26T18:30:37.937Z,9.13
2018-01-26T18:33:04.277Z,10.93
2018-01-26T18:35:31.911Z,10.75
2018-01-26T18:37:58.245Z,10.43
2018-01-26T18:40:24.547Z,9.27
2018-01-26T18:42:50.892Z,11.18
2018-01-26T18:45:18.156Z,9.52
2018-01-26T18:47:44.430Z,8.93
2018-01-26T18:50:10.859Z,9.48
2018-01-26T18:52:37.214Z,8.52
2018-01-26T18:55:03.477Z,9.02
2018-01-26T18:57:29.757Z,8.40
2018-01-26T18:59:56.090Z,8.15
2018-01-26T19:02:22.407Z,8.50
2018-01-26T19:04:48.768Z,8.63
2018-01-26T19:07:15.099Z,7.97
2018-01-26T19:09:41.432Z,8.95
2018-01-26T19:12:07.763Z,9.77
2018-01-26T19:14:34.051Z,8.40
2018-01-26T19:17:00.322Z,8.75
2018-01-26T19:19:26.710Z,8.13
2018-01-26T19:21:53.304Z,8.40
2018-01-26T19:24:19.637Z,7.28
2018-01-26T19:26:45.918Z,7.87
2018-01-26T19:29:12.553Z,8.50
2018-01-26T19:31:38.916Z,8.32
2018-01-26T19:34:05.252Z,7.62
2018-01-26T19:36:31.579Z,8.98
2018-01-26T19:38:57.910Z,8.45
2018-01-26T19:41:25.003Z,9.05
2018-01-26T19:43:51.351Z,9.30
2018-01-26T19:46:19.103Z,9.95
2018-01-26T19:48:45.814Z,10.73
2018-01-26T19:51:12.154Z,12.43
2018-01-26T19:53:38.569Z,9.80
2018-01-26T19:56:04.900Z,9.90
2018-01-26T19:58:31.326Z,12.18
2018-01-26T20:00:57.643Z,11.63
2018-01-26T20:03:29.925Z,11.12
2018-01-26T20:06:02.297Z,9.57
2018-01-26T20:08:34.765Z,10.05
2018-01-26T20:11:01.179Z,11.50
2018-01-26T20:13:27.589Z,12.13
2018-01-26T20:15:54.027Z,13.07
2018-01-26T20:18:20.367Z,11.00
2018-01-26T20:20:46.644Z,11.90
2018-01-26T20:23:12.965Z,10.75
2018-01-26T20:25:39.383Z,11.73
2018-01-26T20:28:05.704Z,11.90
2018-01-26T20:30:32.024Z,12.07
2018-01-26T20:32:59.168Z,12.45
2018-01-26T20:35:25.496Z,12.25
2018-01-26T20:37:52.259Z,11.98
2018-01-26T20:40:18.570Z,13.80
2018-01-26T20:42:44.859Z,14.05
2018-01-26T20:45:11.259Z,13.00
2018-01-26T20:47:37.665Z,14.45
2018-01-26T20:50:03.974Z,12.00
2018-01-26T20:52:30.673Z,12.07
2018-01-26T20:54:56.998Z,13.13
2018-01-26T20:57:23.337Z,12.23
2018-01-26T20:59:49.649Z,12.45
2018-01-26T21:02:15.963Z,16.02
2018-01-26T21:04:42.281Z,19.05
2018-01-26T21:07:08.597Z,21.92
2018-01-26T21:09:35.326Z,22.65
2018-01-26T21:12:01.628Z,23.65
2018-01-26T21:14:27.893Z,20.62
2018-01-26T21:16:54.578Z,19.25
2018-01-26T21:19:20.857Z,16.85
2018-01-26T21:21:47.126Z,17.45
2018-01-26T21:24:13.441Z,15.90
2018-01-26T21:26:39.716Z,15.80
2018-01-26T21:29:06.009Z,15.63
2018-01-26T21:31:32.459Z,17.58
2018-01-26T21:33:58.736Z,15.80
2018-01-26T21:36:25.356Z,17.90
2018-01-26T21:38:51.713Z,20.02
2018-01-26T21:41:17.994Z,20.62
2018-01-26T21:43:44.312Z,20.42
2018-01-26T21:46:10.634Z,20.50
2018-01-26T21:48:36.946Z,23.40
2018-01-26T21:51:03.287Z,23.23
2018-01-26T21:53:29.577Z,21.05
2018-01-26T21:55:55.919Z,23.42
2018-01-26T21:58:22.195Z,24.05
2018-01-26T22:00:48.475Z,26.02
2018-01-26T22:03:15.152Z,27.50
2018-01-26T22:05:41.497Z,27.65
2018-01-26T22:08:07.763Z,26.85
2018-01-26T22:10:34.080Z,25.67
2018-01-26T22:13:01.003Z,26.90
2018-01-26T22:15:27.288Z,30.12
2018-01-26T22:17:54.052Z,27.75
2018-01-26T22:20:20.369Z,28.85
2018-01-26T22:22:46.733Z,27.92
2018-01-26T22:25:13.059Z,29.00
2018-01-26T22:27:39.405Z,27.10
2018-01-26T22:30:05.725Z,32.28
2018-01-26T22:32:32.877Z,31.30
2018-01-26T22:34:59.173Z,30.00
2018-01-26T22:37:25.617Z,30.50
2018-01-26T22:39:51.921Z,27.77
2018-01-26T22:42:18.188Z,28.40
2018-01-26T22:44:44.481Z,27.30
2018-01-26T22:47:11.137Z,28.48
2018-01-26T22:49:37.478Z,27.60
2018-01-26T22:52:03.800Z,27.17
2018-01-26T22:54:30.091Z,24.23
2018-01-26T22:56:56.378Z,27.17
2018-01-26T22:59:22.629Z,26.37
2018-01-26T23:01:48.920Z,27.52
2018-01-26T23:04:15.189Z,27.15
2018-01-26T23:06:41.532Z,27.58
2018-01-26T23:09:08.243Z,27.35
2018-01-26T23:11:34.563Z,25.45
2018-01-26T23:14:00.841Z,24.05
2018-01-26T23:16:27.577Z,24.02
2018-01-26T23:18:53.893Z,23.33
2018-01-26T23:21:20.155Z,23.95
2018-01-26T23:23:46.845Z,23.42
2018-01-26T23:26:13.175Z,25.67
2018-01-26T23:28:39.446Z,23.08
2018-01-26T23:31:05.788Z,26.92
2018-01-26T23:33:32.044Z,24.95
2018-01-26T23:35:58.383Z,21.45
2018-01-26T23:38:24.603Z,20.08
2018-01-26T23:40:50.944Z,21.80
2018-01-26T23:43:17.236Z,19.98
2018-01-26T23:45:43.578Z,19.85
2018-01-26T23:48:09.967Z,19.08
2018-01-26T23:50:37.129Z,18.12
2018-01-26T23:53:03.819Z,17.35
2018-01-26T23:55:30.088Z,21.80
2018-01-26T23:57:56.344Z,19.05
